AAL2487 KCLT-KPBI
Flight info
| Callsign | AAL2487 |
|---|---|
| Flight time | 1h 27m |
| Altitude | 38000 |
| Route | ICONS5 NOOKS WURFL Q83 JEVED Q97 KENLL CPTAN3 |
| Aircraft | B738/M-SDE2E3FGHIRWXY/LB1 |
Departure
| Time | 2026-05-08 23:37 |
|---|---|
| Airport | Charlotte Douglas International Airport (KCLT) |
Arrival
| Time | 2026-05-09 01:04 |
|---|---|
| Airport | Palm Beach International Airport (KPBI) |
| Time | Latitude | Longitude | Altitude | Speed | Heading |
|---|---|---|---|---|---|
| 2026-05-08 23:05 | 35.22119 | -80.93987 | 731 ft | 0 kts | 176° |
| 2026-05-08 23:26 | 35.22127 | -80.93988 | 730 ft | 4 kts | 176° |
| 2026-05-08 23:27 | 35.22153 | -80.93991 | 730 ft | 4 kts | 155° |
| 2026-05-08 23:27 | 35.22171 | -80.94010 | 729 ft | 4 kts | 105° |
| 2026-05-08 23:27 | 35.22173 | -80.94032 | 729 ft | 1 kts | 85° |
| 2026-05-08 23:27 | 35.22172 | -80.94035 | 728 ft | 0 kts | 85° |
| 2026-05-08 23:30 | 35.22173 | -80.94026 | 729 ft | 1 kts | 87° |
| 2026-05-08 23:30 | 35.22177 | -80.93960 | 731 ft | 8 kts | 85° |
| 2026-05-08 23:31 | 35.22180 | -80.93912 | 731 ft | 5 kts | 86° |
| 2026-05-08 23:31 | 35.22184 | -80.93861 | 731 ft | 7 kts | 84° |
| 2026-05-08 23:31 | 35.22186 | -80.93831 | 731 ft | 0 kts | 84° |
| 2026-05-08 23:31 | 35.22188 | -80.93805 | 731 ft | 3 kts | 85° |
| 2026-05-08 23:32 | 35.22200 | -80.93751 | 732 ft | 10 kts | 57° |
| 2026-05-08 23:32 | 35.22274 | -80.93736 | 732 ft | 14 kts | 355° |
| 2026-05-08 23:32 | 35.22330 | -80.93740 | 732 ft | 6 kts | 357° |
| 2026-05-08 23:32 | 35.22391 | -80.93742 | 732 ft | 8 kts | 360° |
| 2026-05-08 23:33 | 35.22420 | -80.93745 | 732 ft | 0 kts | 352° |
| 2026-05-08 23:33 | 35.22422 | -80.93745 | 732 ft | 0 kts | 352° |
| 2026-05-08 23:33 | 35.22423 | -80.93746 | 732 ft | 3 kts | 352° |
| 2026-05-08 23:34 | 35.22457 | -80.93752 | 733 ft | 3 kts | 353° |
| 2026-05-08 23:34 | 35.22486 | -80.93744 | 733 ft | 5 kts | 31° |
| 2026-05-08 23:34 | 35.22488 | -80.93742 | 733 ft | 0 kts | 42° |
| 2026-05-08 23:36 | 35.22495 | -80.93727 | 733 ft | 3 kts | 64° |
| 2026-05-08 23:36 | 35.22507 | -80.93667 | 734 ft | 9 kts | 90° |
| 2026-05-08 23:36 | 35.22466 | -80.93615 | 735 ft | 10 kts | 166° |
| 2026-05-08 23:36 | 35.22228 | -80.93598 | 735 ft | 69 kts | 175° |
| 2026-05-08 23:37 | 35.21522 | -80.93535 | 734 ft | 132 kts | 176° |
| 2026-05-08 23:37 | 35.20475 | -80.93454 | 987 ft | 159 kts | 178° |
| 2026-05-08 23:37 | 35.19367 | -80.93350 | 1673 ft | 162 kts | 175° |
| 2026-05-08 23:37 | 35.18249 | -80.93206 | 2422 ft | 163 kts | 175° |
| 2026-05-08 23:38 | 35.17068 | -80.93046 | 2934 ft | 183 kts | 175° |
| 2026-05-08 23:38 | 35.15697 | -80.92870 | 3168 ft | 212 kts | 175° |
| 2026-05-08 23:38 | 35.14162 | -80.92678 | 3394 ft | 236 kts | 175° |
| 2026-05-08 23:38 | 35.12448 | -80.92492 | 3726 ft | 255 kts | 180° |
| 2026-05-08 23:39 | 35.10661 | -80.92643 | 4549 ft | 257 kts | 187° |
| 2026-05-08 23:39 | 35.08885 | -80.92909 | 5436 ft | 259 kts | 188° |
| 2026-05-08 23:39 | 35.07083 | -80.93192 | 6298 ft | 261 kts | 188° |
| 2026-05-08 23:39 | 35.05260 | -80.93459 | 7045 ft | 266 kts | 188° |
| 2026-05-08 23:40 | 35.03423 | -80.93714 | 7748 ft | 272 kts | 189° |
| 2026-05-08 23:40 | 35.01528 | -80.93975 | 8481 ft | 277 kts | 190° |
| 2026-05-08 23:40 | 34.99592 | -80.94229 | 9207 ft | 283 kts | 190° |
| 2026-05-08 23:40 | 34.97618 | -80.94478 | 9946 ft | 288 kts | 191° |
| 2026-05-08 23:41 | 34.95559 | -80.94738 | 10242 ft | 309 kts | 191° |
| 2026-05-08 23:41 | 34.93364 | -80.95007 | 10589 ft | 325 kts | 190° |
| 2026-05-08 23:41 | 34.91083 | -80.95283 | 11218 ft | 330 kts | 190° |
| 2026-05-08 23:41 | 34.88819 | -80.95558 | 11966 ft | 331 kts | 191° |
| 2026-05-08 23:42 | 34.86518 | -80.95842 | 12719 ft | 335 kts | 192° |
| 2026-05-08 23:42 | 34.84183 | -80.96137 | 13444 ft | 339 kts | 192° |
| 2026-05-08 23:42 | 34.81830 | -80.96432 | 14194 ft | 342 kts | 192° |
| 2026-05-08 23:42 | 34.79449 | -80.96718 | 14867 ft | 347 kts | 191° |
| 2026-05-08 23:43 | 34.76969 | -80.96882 | 15154 ft | 367 kts | 189° |
| 2026-05-08 23:43 | 34.74371 | -80.96956 | 15649 ft | 376 kts | 188° |
| 2026-05-08 23:43 | 34.71738 | -80.97000 | 16319 ft | 380 kts | 188° |
| 2026-05-08 23:43 | 34.69095 | -80.97050 | 17038 ft | 381 kts | 188° |
| 2026-05-08 23:44 | 34.67334 | -80.97095 | 17483 ft | 383 kts | 189° |
| 2026-05-08 23:44 | 34.63747 | -80.97200 | 18311 ft | 388 kts | 189° |
| 2026-05-08 23:44 | 34.61080 | -80.97297 | 18851 ft | 390 kts | 191° |
| 2026-05-08 23:44 | 34.58361 | -80.97504 | 19418 ft | 391 kts | 193° |
| 2026-05-08 23:45 | 34.55647 | -80.97771 | 20003 ft | 393 kts | 193° |
| 2026-05-08 23:45 | 34.52915 | -80.98057 | 20567 ft | 395 kts | 193° |
| 2026-05-08 23:45 | 34.50159 | -80.98340 | 21101 ft | 399 kts | 194° |
| 2026-05-08 23:45 | 34.48281 | -80.98529 | 21451 ft | 401 kts | 194° |
| 2026-05-08 23:46 | 34.45494 | -80.98818 | 21986 ft | 404 kts | 195° |
| 2026-05-08 23:46 | 34.42683 | -80.99109 | 22515 ft | 407 kts | 195° |
| 2026-05-08 23:46 | 34.39844 | -80.99384 | 22987 ft | 410 kts | 195° |
| 2026-05-08 23:46 | 34.37007 | -80.99652 | 23285 ft | 419 kts | 195° |
| 2026-05-08 23:47 | 34.34083 | -80.99921 | 23689 ft | 423 kts | 195° |
| 2026-05-08 23:47 | 34.31143 | -81.00177 | 24157 ft | 423 kts | 195° |
| 2026-05-08 23:47 | 34.28212 | -81.00439 | 24680 ft | 422 kts | 195° |
| 2026-05-08 23:47 | 34.25286 | -81.00707 | 25138 ft | 422 kts | 195° |
| 2026-05-08 23:48 | 34.22344 | -81.00983 | 25536 ft | 425 kts | 195° |
| 2026-05-08 23:48 | 34.19391 | -81.01261 | 25924 ft | 427 kts | 195° |
| 2026-05-08 23:48 | 34.16421 | -81.01539 | 26323 ft | 428 kts | 195° |
| 2026-05-08 23:48 | 34.13449 | -81.01819 | 26689 ft | 428 kts | 196° |
| 2026-05-08 23:49 | 34.10485 | -81.02097 | 27162 ft | 427 kts | 195° |
| 2026-05-08 23:49 | 34.07516 | -81.02373 | 27541 ft | 429 kts | 195° |
| 2026-05-08 23:49 | 34.04532 | -81.02649 | 27876 ft | 431 kts | 195° |
| 2026-05-08 23:49 | 34.01531 | -81.02927 | 28206 ft | 433 kts | 195° |
| 2026-05-08 23:50 | 33.98520 | -81.03203 | 28554 ft | 435 kts | 194° |
| 2026-05-08 23:50 | 33.95505 | -81.03293 | 28908 ft | 441 kts | 191° |
| 2026-05-08 23:50 | 33.92425 | -81.03281 | 29249 ft | 443 kts | 191° |
| 2026-05-08 23:50 | 33.89330 | -81.03238 | 29557 ft | 445 kts | 190° |
| 2026-05-08 23:51 | 33.86231 | -81.03186 | 29874 ft | 445 kts | 190° |
| 2026-05-08 23:51 | 33.83130 | -81.03135 | 30225 ft | 445 kts | 190° |
| 2026-05-08 23:51 | 33.80039 | -81.03090 | 30521 ft | 445 kts | 190° |
| 2026-05-08 23:51 | 33.76932 | -81.03050 | 30786 ft | 446 kts | 190° |
| 2026-05-08 23:52 | 33.73821 | -81.03014 | 31090 ft | 446 kts | 190° |
| 2026-05-08 23:52 | 33.70719 | -81.02979 | 31404 ft | 446 kts | 191° |
| 2026-05-08 23:52 | 33.67621 | -81.02944 | 31700 ft | 446 kts | 191° |
| 2026-05-08 23:52 | 33.64508 | -81.02912 | 31989 ft | 446 kts | 191° |
| 2026-05-08 23:53 | 33.61447 | -81.02895 | 32245 ft | 446 kts | 190° |
| 2026-05-08 23:53 | 33.58349 | -81.02867 | 32610 ft | 445 kts | 191° |
| 2026-05-08 23:53 | 33.55256 | -81.02843 | 32953 ft | 444 kts | 191° |
| 2026-05-08 23:53 | 33.52126 | -81.02817 | 33250 ft | 444 kts | 191° |
| 2026-05-08 23:54 | 33.49037 | -81.02786 | 33527 ft | 444 kts | 190° |
| 2026-05-08 23:54 | 33.45948 | -81.02753 | 33861 ft | 444 kts | 191° |
| 2026-05-08 23:54 | 33.42863 | -81.02722 | 34178 ft | 443 kts | 191° |
| 2026-05-08 23:55 | 33.36750 | -81.02666 | 34685 ft | 442 kts | 191° |
| 2026-05-08 23:55 | 33.33673 | -81.02638 | 34912 ft | 442 kts | 191° |
| 2026-05-08 23:55 | 33.30609 | -81.02610 | 35190 ft | 440 kts | 191° |
| 2026-05-08 23:55 | 33.27539 | -81.02581 | 35433 ft | 440 kts | 191° |
| 2026-05-08 23:56 | 33.24464 | -81.02554 | 35655 ft | 441 kts | 191° |
| 2026-05-08 23:56 | 33.21406 | -81.02526 | 35893 ft | 440 kts | 191° |
| 2026-05-08 23:56 | 33.18335 | -81.02498 | 36139 ft | 440 kts | 191° |
| 2026-05-08 23:56 | 33.15279 | -81.02469 | 36373 ft | 440 kts | 191° |
| 2026-05-08 23:57 | 33.12222 | -81.02441 | 36602 ft | 439 kts | 192° |
| 2026-05-08 23:57 | 33.09164 | -81.02411 | 36833 ft | 439 kts | 191° |
| 2026-05-08 23:57 | 33.06103 | -81.02377 | 37054 ft | 439 kts | 191° |
| 2026-05-08 23:57 | 33.03049 | -81.02344 | 37279 ft | 439 kts | 192° |
| 2026-05-08 23:58 | 33.00033 | -81.02311 | 37492 ft | 439 kts | 192° |
| 2026-05-08 23:58 | 32.97061 | -81.02282 | 37694 ft | 439 kts | 192° |
| 2026-05-08 23:58 | 32.93943 | -81.02254 | 37919 ft | 438 kts | 192° |
| 2026-05-08 23:58 | 32.90883 | -81.02228 | 38028 ft | 440 kts | 192° |
| 2026-05-08 23:59 | 32.87816 | -81.02206 | 38021 ft | 442 kts | 192° |
| 2026-05-08 23:59 | 32.81671 | -81.02150 | 37998 ft | 438 kts | 191° |
| 2026-05-09 00:00 | 32.75615 | -81.02089 | 38023 ft | 434 kts | 192° |
| 2026-05-09 00:00 | 32.69598 | -81.02036 | 38038 ft | 430 kts | 192° |
| 2026-05-09 00:01 | 32.63626 | -81.01985 | 38032 ft | 429 kts | 192° |
| 2026-05-09 00:01 | 32.57683 | -81.01934 | 38050 ft | 432 kts | 192° |
| 2026-05-09 00:02 | 32.51628 | -81.01892 | 38036 ft | 438 kts | 192° |
| 2026-05-09 00:02 | 32.45517 | -81.01999 | 38040 ft | 441 kts | 193° |
| 2026-05-09 00:03 | 32.39370 | -81.02136 | 38038 ft | 444 kts | 193° |
| 2026-05-09 00:03 | 32.33230 | -81.02243 | 38028 ft | 443 kts | 192° |
| 2026-05-09 00:04 | 32.27123 | -81.02334 | 38016 ft | 435 kts | 193° |
| 2026-05-09 00:04 | 32.21061 | -81.02451 | 38040 ft | 437 kts | 193° |
| 2026-05-09 00:05 | 32.14946 | -81.02564 | 38048 ft | 440 kts | 192° |
| 2026-05-09 00:05 | 32.08800 | -81.02671 | 38003 ft | 443 kts | 192° |
| 2026-05-09 00:06 | 32.02648 | -81.02779 | 37955 ft | 444 kts | 193° |
| 2026-05-09 00:06 | 31.96471 | -81.02909 | 37995 ft | 443 kts | 193° |
| 2026-05-09 00:07 | 31.90295 | -81.03083 | 38003 ft | 444 kts | 193° |
| 2026-05-09 00:07 | 31.84122 | -81.03253 | 38004 ft | 444 kts | 193° |
| 2026-05-09 00:08 | 31.77940 | -81.03423 | 38008 ft | 443 kts | 193° |
| 2026-05-09 00:08 | 31.71777 | -81.03591 | 38014 ft | 442 kts | 193° |
| 2026-05-09 00:09 | 31.65659 | -81.03762 | 38011 ft | 442 kts | 194° |
| 2026-05-09 00:09 | 31.59516 | -81.03934 | 38025 ft | 441 kts | 194° |
| 2026-05-09 00:10 | 31.53399 | -81.04223 | 38029 ft | 438 kts | 195° |
| 2026-05-09 00:10 | 31.47362 | -81.04655 | 37997 ft | 437 kts | 196° |
| 2026-05-09 00:11 | 31.41288 | -81.05066 | 38021 ft | 437 kts | 196° |
| 2026-05-09 00:11 | 31.35213 | -81.05460 | 38034 ft | 437 kts | 196° |
| 2026-05-09 00:12 | 31.29136 | -81.05856 | 38035 ft | 437 kts | 196° |
| 2026-05-09 00:12 | 31.23057 | -81.06218 | 38029 ft | 440 kts | 194° |
| 2026-05-09 00:13 | 31.16939 | -81.06338 | 38030 ft | 442 kts | 194° |
| 2026-05-09 00:13 | 31.10783 | -81.06429 | 38027 ft | 442 kts | 194° |
| 2026-05-09 00:14 | 31.04627 | -81.06540 | 38029 ft | 442 kts | 194° |
| 2026-05-09 00:14 | 30.98464 | -81.06664 | 38032 ft | 443 kts | 194° |
| 2026-05-09 00:15 | 30.92296 | -81.06781 | 38002 ft | 443 kts | 193° |
| 2026-05-09 00:15 | 30.86132 | -81.06915 | 38024 ft | 443 kts | 194° |
| 2026-05-09 00:16 | 30.79970 | -81.07047 | 38035 ft | 443 kts | 194° |
| 2026-05-09 00:16 | 30.73836 | -81.07173 | 38034 ft | 444 kts | 194° |
| 2026-05-09 00:17 | 30.67654 | -81.07302 | 38034 ft | 444 kts | 194° |
| 2026-05-09 00:17 | 30.61478 | -81.07433 | 38020 ft | 442 kts | 193° |
| 2026-05-09 00:18 | 30.55345 | -81.07767 | 38026 ft | 440 kts | 194° |
| 2026-05-09 00:18 | 30.49225 | -81.08188 | 38033 ft | 440 kts | 195° |
| 2026-05-09 00:19 | 30.43090 | -81.08586 | 38030 ft | 442 kts | 194° |
| 2026-05-09 00:19 | 30.36943 | -81.08952 | 38027 ft | 442 kts | 194° |
| 2026-05-09 00:20 | 30.30829 | -81.09308 | 38026 ft | 443 kts | 194° |
| 2026-05-09 00:20 | 30.24680 | -81.09681 | 38025 ft | 443 kts | 194° |
| 2026-05-09 00:21 | 30.18514 | -81.10055 | 38027 ft | 443 kts | 194° |
| 2026-05-09 00:21 | 30.12359 | -81.10424 | 38028 ft | 443 kts | 194° |
| 2026-05-09 00:22 | 30.06193 | -81.10791 | 38027 ft | 442 kts | 193° |
| 2026-05-09 00:22 | 30.00428 | -81.11470 | 38115 ft | 436 kts | 198° |
| 2026-05-09 00:23 | 29.94270 | -81.11749 | 38017 ft | 444 kts | 190° |
| 2026-05-09 00:23 | 29.88283 | -81.11855 | 38025 ft | 438 kts | 193° |
| 2026-05-09 00:24 | 29.82578 | -81.12181 | 38021 ft | 436 kts | 193° |
| 2026-05-09 00:24 | 29.76493 | -81.12343 | 38014 ft | 439 kts | 191° |
| 2026-05-09 00:25 | 29.70494 | -81.12330 | 38015 ft | 439 kts | 191° |
| 2026-05-09 00:25 | 29.64420 | -81.12331 | 37994 ft | 439 kts | 191° |
| 2026-05-09 00:26 | 29.58302 | -81.12337 | 37994 ft | 444 kts | 187° |
| 2026-05-09 00:26 | 29.55187 | -81.11634 | 37992 ft | 469 kts | 170° |
| 2026-05-09 00:26 | 29.52113 | -81.10324 | 37952 ft | 472 kts | 169° |
| 2026-05-09 00:27 | 29.45956 | -81.07657 | 37985 ft | 473 kts | 169° |
| 2026-05-09 00:27 | 29.39761 | -81.05046 | 37994 ft | 475 kts | 170° |
| 2026-05-09 00:28 | 29.33524 | -81.02459 | 37990 ft | 477 kts | 170° |
| 2026-05-09 00:28 | 29.27265 | -80.99878 | 37992 ft | 479 kts | 170° |
| 2026-05-09 00:29 | 29.20982 | -80.97290 | 37983 ft | 480 kts | 170° |
| 2026-05-09 00:29 | 29.14701 | -80.94712 | 38003 ft | 480 kts | 169° |
| 2026-05-09 00:30 | 29.08411 | -80.92109 | 38011 ft | 481 kts | 169° |
| 2026-05-09 00:30 | 29.02111 | -80.89523 | 38005 ft | 481 kts | 170° |
| 2026-05-09 00:31 | 28.96871 | -80.87375 | 38010 ft | 481 kts | 170° |
| 2026-05-09 00:31 | 28.90566 | -80.84785 | 37979 ft | 481 kts | 169° |
| 2026-05-09 00:32 | 28.83252 | -80.81795 | 37975 ft | 481 kts | 169° |
| 2026-05-09 00:32 | 28.78010 | -80.79664 | 37966 ft | 481 kts | 170° |
| 2026-05-09 00:33 | 28.71711 | -80.77100 | 37792 ft | 484 kts | 169° |
| 2026-05-09 00:33 | 28.68520 | -80.75802 | 37264 ft | 487 kts | 169° |
| 2026-05-09 00:33 | 28.65349 | -80.74507 | 36692 ft | 485 kts | 169° |
| 2026-05-09 00:33 | 28.62188 | -80.73218 | 36108 ft | 483 kts | 169° |
| 2026-05-09 00:34 | 28.59059 | -80.71945 | 35554 ft | 482 kts | 169° |
| 2026-05-09 00:34 | 28.55895 | -80.70662 | 34909 ft | 483 kts | 168° |
| 2026-05-09 00:34 | 28.52722 | -80.69376 | 34236 ft | 484 kts | 168° |
| 2026-05-09 00:34 | 28.49538 | -80.68086 | 33514 ft | 486 kts | 168° |
| 2026-05-09 00:35 | 28.46392 | -80.66810 | 32974 ft | 482 kts | 168° |
| 2026-05-09 00:35 | 28.43252 | -80.65534 | 32469 ft | 478 kts | 168° |
| 2026-05-09 00:35 | 28.40126 | -80.64265 | 31974 ft | 473 kts | 168° |
| 2026-05-09 00:35 | 28.37036 | -80.63013 | 31491 ft | 469 kts | 168° |
| 2026-05-09 00:36 | 28.33977 | -80.61776 | 30978 ft | 465 kts | 168° |
| 2026-05-09 00:36 | 28.30963 | -80.60560 | 30522 ft | 461 kts | 168° |
| 2026-05-09 00:36 | 28.27974 | -80.59353 | 30069 ft | 457 kts | 168° |
| 2026-05-09 00:36 | 28.24962 | -80.58136 | 29536 ft | 454 kts | 168° |
| 2026-05-09 00:37 | 28.21999 | -80.56939 | 29060 ft | 448 kts | 168° |
| 2026-05-09 00:37 | 28.19080 | -80.55761 | 28559 ft | 444 kts | 168° |
| 2026-05-09 00:37 | 28.16213 | -80.54605 | 28074 ft | 440 kts | 168° |
| 2026-05-09 00:37 | 28.13338 | -80.53447 | 27601 ft | 436 kts | 168° |
| 2026-05-09 00:38 | 28.10489 | -80.52301 | 27132 ft | 432 kts | 168° |
| 2026-05-09 00:38 | 28.07669 | -80.51165 | 26667 ft | 428 kts | 168° |
| 2026-05-09 00:38 | 28.04872 | -80.50041 | 26208 ft | 425 kts | 168° |
| 2026-05-09 00:38 | 28.02091 | -80.48926 | 25729 ft | 422 kts | 167° |
| 2026-05-09 00:39 | 27.99368 | -80.47833 | 25281 ft | 419 kts | 167° |
| 2026-05-09 00:39 | 27.96617 | -80.46729 | 24825 ft | 417 kts | 167° |
| 2026-05-09 00:39 | 27.93889 | -80.45635 | 24372 ft | 415 kts | 167° |
| 2026-05-09 00:39 | 27.91301 | -80.44598 | 23900 ft | 414 kts | 167° |
| 2026-05-09 00:40 | 27.88574 | -80.43506 | 23211 ft | 417 kts | 167° |
| 2026-05-09 00:40 | 27.85839 | -80.42415 | 22544 ft | 417 kts | 167° |
| 2026-05-09 00:40 | 27.83101 | -80.41319 | 21893 ft | 417 kts | 166° |
| 2026-05-09 00:41 | 27.77705 | -80.39140 | 20639 ft | 406 kts | 166° |
| 2026-05-09 00:41 | 27.75116 | -80.38101 | 20054 ft | 396 kts | 166° |
| 2026-05-09 00:41 | 27.72552 | -80.37078 | 19473 ft | 387 kts | 166° |
| 2026-05-09 00:41 | 27.70041 | -80.36075 | 18905 ft | 378 kts | 166° |
| 2026-05-09 00:42 | 27.67612 | -80.35105 | 18340 ft | 372 kts | 166° |
| 2026-05-09 00:42 | 27.65213 | -80.34091 | 17730 ft | 366 kts | 162° |
| 2026-05-09 00:42 | 27.62914 | -80.32912 | 17206 ft | 360 kts | 159° |
| 2026-05-09 00:42 | 27.60670 | -80.31689 | 16697 ft | 355 kts | 158° |
| 2026-05-09 00:43 | 27.58458 | -80.30479 | 16200 ft | 354 kts | 158° |
| 2026-05-09 00:43 | 27.56225 | -80.29275 | 15714 ft | 356 kts | 158° |
| 2026-05-09 00:43 | 27.53984 | -80.28085 | 15212 ft | 355 kts | 159° |
| 2026-05-09 00:43 | 27.51761 | -80.26908 | 14719 ft | 351 kts | 158° |
| 2026-05-09 00:44 | 27.49559 | -80.25745 | 14219 ft | 347 kts | 158° |
| 2026-05-09 00:44 | 27.47387 | -80.24605 | 13803 ft | 342 kts | 158° |
| 2026-05-09 00:44 | 27.45243 | -80.23475 | 13387 ft | 336 kts | 158° |
| 2026-05-09 00:44 | 27.43137 | -80.22365 | 13017 ft | 335 kts | 158° |
| 2026-05-09 00:45 | 27.41021 | -80.21251 | 12648 ft | 337 kts | 158° |
| 2026-05-09 00:45 | 27.38904 | -80.20137 | 12267 ft | 335 kts | 158° |
| 2026-05-09 00:45 | 27.36796 | -80.19026 | 11910 ft | 332 kts | 157° |
| 2026-05-09 00:45 | 27.34711 | -80.17926 | 11554 ft | 330 kts | 158° |
| 2026-05-09 00:46 | 27.32629 | -80.16835 | 11212 ft | 332 kts | 158° |
| 2026-05-09 00:46 | 27.30524 | -80.15731 | 10859 ft | 335 kts | 158° |
| 2026-05-09 00:46 | 27.28450 | -80.14641 | 10496 ft | 331 kts | 158° |
| 2026-05-09 00:46 | 27.26373 | -80.13554 | 10141 ft | 327 kts | 158° |
| 2026-05-09 00:47 | 27.24310 | -80.12499 | 9890 ft | 320 kts | 159° |
| 2026-05-09 00:47 | 27.22321 | -80.11535 | 9891 ft | 304 kts | 160° |
| 2026-05-09 00:47 | 27.20429 | -80.10625 | 9709 ft | 289 kts | 160° |
| 2026-05-09 00:47 | 27.18594 | -80.09743 | 9218 ft | 285 kts | 160° |
| 2026-05-09 00:48 | 27.16767 | -80.08863 | 8637 ft | 286 kts | 159° |
| 2026-05-09 00:48 | 27.14937 | -80.07979 | 8089 ft | 286 kts | 159° |
| 2026-05-09 00:48 | 27.13121 | -80.07098 | 7588 ft | 284 kts | 158° |
| 2026-05-09 00:48 | 27.11316 | -80.06205 | 7173 ft | 282 kts | 157° |
| 2026-05-09 00:49 | 27.09525 | -80.05315 | 6811 ft | 283 kts | 157° |
| 2026-05-09 00:49 | 27.07725 | -80.04426 | 6454 ft | 289 kts | 156° |
| 2026-05-09 00:49 | 27.05856 | -80.03501 | 6070 ft | 290 kts | 156° |
| 2026-05-09 00:49 | 27.04030 | -80.02596 | 5704 ft | 291 kts | 156° |
| 2026-05-09 00:50 | 27.02176 | -80.01679 | 5343 ft | 292 kts | 156° |
| 2026-05-09 00:50 | 27.00320 | -80.00761 | 4974 ft | 292 kts | 156° |
| 2026-05-09 00:50 | 26.98454 | -79.99840 | 4600 ft | 293 kts | 155° |
| 2026-05-09 00:50 | 26.96555 | -79.99051 | 4201 ft | 288 kts | 170° |
| 2026-05-09 00:51 | 26.94612 | -79.99216 | 4043 ft | 279 kts | 198° |
| 2026-05-09 00:51 | 26.92870 | -80.00177 | 4005 ft | 279 kts | 216° |
| 2026-05-09 00:51 | 26.91344 | -80.01497 | 4007 ft | 275 kts | 219° |
| 2026-05-09 00:51 | 26.89849 | -80.02822 | 3998 ft | 274 kts | 218° |
| 2026-05-09 00:52 | 26.88347 | -80.04137 | 3993 ft | 276 kts | 218° |
| 2026-05-09 00:52 | 26.86851 | -80.05440 | 3989 ft | 273 kts | 219° |
| 2026-05-09 00:52 | 26.85396 | -80.06700 | 3961 ft | 255 kts | 218° |
| 2026-05-09 00:52 | 26.84062 | -80.07855 | 3980 ft | 231 kts | 218° |
| 2026-05-09 00:53 | 26.82856 | -80.08894 | 3974 ft | 218 kts | 219° |
| 2026-05-09 00:53 | 26.81673 | -80.09927 | 4005 ft | 228 kts | 219° |
| 2026-05-09 00:53 | 26.80657 | -80.11304 | 3959 ft | 232 kts | 252° |
| 2026-05-09 00:53 | 26.80456 | -80.13074 | 3997 ft | 230 kts | 269° |
| 2026-05-09 00:54 | 26.80352 | -80.14835 | 3986 ft | 230 kts | 267° |
| 2026-05-09 00:54 | 26.80231 | -80.16614 | 3991 ft | 229 kts | 267° |
| 2026-05-09 00:54 | 26.80107 | -80.18398 | 3985 ft | 229 kts | 266° |
| 2026-05-09 00:54 | 26.79977 | -80.20175 | 3978 ft | 229 kts | 265° |
| 2026-05-09 00:55 | 26.79812 | -80.21912 | 3974 ft | 228 kts | 264° |
| 2026-05-09 00:55 | 26.79633 | -80.23679 | 3975 ft | 228 kts | 263° |
| 2026-05-09 00:55 | 26.79454 | -80.25428 | 3970 ft | 227 kts | 263° |
| 2026-05-09 00:55 | 26.79275 | -80.27174 | 3979 ft | 227 kts | 264° |
| 2026-05-09 00:56 | 26.79097 | -80.28919 | 3978 ft | 227 kts | 264° |
| 2026-05-09 00:56 | 26.78919 | -80.30658 | 3981 ft | 226 kts | 264° |
| 2026-05-09 00:56 | 26.78737 | -80.32432 | 3968 ft | 226 kts | 264° |
| 2026-05-09 00:56 | 26.78560 | -80.34158 | 3971 ft | 226 kts | 264° |
| 2026-05-09 00:57 | 26.78379 | -80.35910 | 3972 ft | 227 kts | 263° |
| 2026-05-09 00:57 | 26.78141 | -80.37654 | 3964 ft | 227 kts | 251° |
| 2026-05-09 00:57 | 26.77278 | -80.39097 | 3901 ft | 225 kts | 218° |
| 2026-05-09 00:57 | 26.75870 | -80.39785 | 3639 ft | 222 kts | 186° |
| 2026-05-09 00:58 | 26.74320 | -80.39830 | 3287 ft | 222 kts | 178° |
| 2026-05-09 00:58 | 26.72800 | -80.39804 | 3218 ft | 218 kts | 178° |
| 2026-05-09 00:58 | 26.71280 | -80.39701 | 3151 ft | 220 kts | 163° |
| 2026-05-09 00:58 | 26.70037 | -80.38785 | 3102 ft | 218 kts | 122° |
| 2026-05-09 00:59 | 26.69592 | -80.37207 | 3088 ft | 221 kts | 96° |
| 2026-05-09 00:59 | 26.69441 | -80.35452 | 3023 ft | 222 kts | 95° |
| 2026-05-09 00:59 | 26.69339 | -80.33759 | 2918 ft | 222 kts | 94° |
| 2026-05-09 00:59 | 26.69256 | -80.32038 | 2784 ft | 221 kts | 93° |
| 2026-05-09 01:00 | 26.69189 | -80.30335 | 2638 ft | 217 kts | 93° |
| 2026-05-09 01:00 | 26.69115 | -80.28693 | 2496 ft | 206 kts | 94° |
| 2026-05-09 01:00 | 26.69042 | -80.27149 | 2403 ft | 193 kts | 93° |
| 2026-05-09 01:00 | 26.68978 | -80.25702 | 2277 ft | 183 kts | 93° |
| 2026-05-09 01:01 | 26.68915 | -80.24303 | 2181 ft | 178 kts | 94° |
| 2026-05-09 01:01 | 26.68852 | -80.22916 | 2096 ft | 179 kts | 95° |
| 2026-05-09 01:01 | 26.68788 | -80.21525 | 1906 ft | 181 kts | 94° |
| 2026-05-09 01:01 | 26.68729 | -80.20162 | 1685 ft | 170 kts | 94° |
| 2026-05-09 01:02 | 26.68673 | -80.18862 | 1467 ft | 166 kts | 94° |
| 2026-05-09 01:02 | 26.68617 | -80.17566 | 1241 ft | 168 kts | 94° |
| 2026-05-09 01:02 | 26.68556 | -80.16271 | 1045 ft | 161 kts | 93° |
| 2026-05-09 01:02 | 26.68505 | -80.15063 | 823 ft | 153 kts | 93° |
| 2026-05-09 01:03 | 26.68449 | -80.13921 | 623 ft | 144 kts | 93° |
| 2026-05-09 01:03 | 26.68396 | -80.12783 | 473 ft | 148 kts | 93° |
| 2026-05-09 01:03 | 26.68348 | -80.11637 | 234 ft | 145 kts | 92° |
| 2026-05-09 01:03 | 26.68308 | -80.10546 | 50 ft | 137 kts | 94° |
| 2026-05-09 01:04 | 26.68265 | -80.09559 | 21 ft | 111 kts | 92° |
| 2026-05-09 01:04 | 26.68236 | -80.08867 | 21 ft | 67 kts | 93° |
| 2026-05-09 01:04 | 26.68217 | -80.08487 | 21 ft | 41 kts | 93° |
| 2026-05-09 01:04 | 26.68211 | -80.08195 | 21 ft | 16 kts | 71° |
| 2026-05-09 01:05 | 26.68303 | -80.08164 | 21 ft | 13 kts | 332° |
| 2026-05-09 01:05 | 26.68321 | -80.08258 | 21 ft | 14 kts | 271° |
| 2026-05-09 01:05 | 26.68332 | -80.08536 | 21 ft | 21 kts | 270° |
| 2026-05-09 01:06 | 26.68339 | -80.08678 | 21 ft | 10 kts | 280° |
| 2026-05-09 01:06 | 26.68385 | -80.08725 | 21 ft | 10 kts | 352° |
| 2026-05-09 01:06 | 26.68436 | -80.08749 | 21 ft | 9 kts | 287° |
| 2026-05-09 01:06 | 26.68440 | -80.08829 | 21 ft | 14 kts | 272° |
| 2026-05-09 01:07 | 26.68450 | -80.08945 | 21 ft | 16 kts | 281° |
| 2026-05-09 01:07 | 26.68481 | -80.09058 | 21 ft | 15 kts | 303° |
| 2026-05-09 01:07 | 26.68547 | -80.09148 | 22 ft | 11 kts | 298° |
| 2026-05-09 01:07 | 26.68579 | -80.09211 | 22 ft | 6 kts | 309° |
| 2026-05-09 01:08 | 26.68609 | -80.09242 | 21 ft | 6 kts | 317° |
| 2026-05-09 01:08 | 26.68631 | -80.09265 | 22 ft | 3 kts | 317° |
| 2026-05-09 01:08 | 26.68643 | -80.09277 | 21 ft | 2 kts | 318° |
| 2026-05-09 01:08 | 26.68649 | -80.09284 | 21 ft | 0 kts | 318° |